メインページ
METAR-TAF:

METAR-TAF

空港 :

Bella Bella, ブリティッシュコロンビア州, カナダ

緯度: 52-11-06N, 経度: 128-09-24W, 海抜: 43m

現時点の気象観測

当レポートは41分前の04:00(UTC)に作成
変向風 2kt
気温 11°C
湿度 87%
気圧 1008 hPa
視程: 14.5km
高度5000ftの曇り

METAR: CBBC 210400Z AUTO VRB02KT 9SM OVC050 11/09 A2976 RMK SLP080

時間: 21:41 (04:41 UTC)

予報

当レポートは4時間3分前の00:38(UTC)に作成
予報は21日の 01時(UTC)から 21日の 05時(UTC)まで有効
西の風 5kt
視程: 10km
高度1500ftの雲は散在している
高度3000ftの曇り
21日の 01時(UTC)から 21日の 05時(UTC)まで一時的に
視程: 10km
高度1500ftの千切れ雲あり
高度3000ftの曇り
弱いにわか雨

TAF: CBBC 210038Z 2101/2105 26005KT P6SM SCT015 OVC030 TEMPO 2101/2105 P6SM -SHRA BKN015 OVC030 RMK FCST BASED ON AUTO OBS. NXT FCST WILL BE ISSUED AT 211245Z

4,000以上の空港の気象観測と天気予報(METAR報とTAF報)

利用可能な観測所は地図上に黄色い丸と赤い丸で示す。

丸の上にカーソルを重ねると観測所名を参照できる。

次にクリックすると気象観測と天気予報を参照できる。

マップの切り替え:黒色「×」印の緑ボタンをクリックして拡大、「-」印の緑ボタンをクリックして縮小、緑色の三角印をクリックして隣りの地図に切り替え


METAR-TAF: